KPRX/PRX METAR and TAF weather

Enter ICAO airport designator
Station Type Date Time Source
KPRX METAR 2019/10/23 20:56 UTC NOAA

KPRX 232056Z AUTO 15016KT 10SM CLR 24/03 A2998 RMK AO2 SLP167 T02440033 56030


Station Type Date Time Source
KPRX Decoded METAR 2019/10/23 20:56 UTC NOAA

Paris / Cox Field, TX, United States (KPRX) 33-38N 095-27W
Oct 23, 2019 - 04:56 PM EDT / 2019.10.23 2056 UTC
Wind: from the SSE (150 degrees) at 18 MPH (16 KT):0
Visibility: 10 mile(s):0
Sky conditions: clear
Temperature: 75.9 F (24.4 C)
Dew Point: 37.9 F (3.3 C)
Relative Humidity: 25%
Pressure (altimeter): 29.98 in. Hg (1015 hPa)
Pressure tendency: 0.09 inches (3.0 hPa) lower than three hours ago
ob: KPRX 232056Z AUTO 15016KT 10SM CLR 24/03 A2998 RMK AO2 SLP167 T02440033 56030
cycle: 21

Station Type Date Time Source
KPRX TAF UTC NOAA

Error!

Example: see airport list